Time;durP1;ratioP1;P1;durP2;ratioP2;P2;SDS_P1;SDS_P2;PMS_P1;PMS_P2;Temp;Humidity;BMP_temperature;BMP_pressure;BME280_temperature;BME280_humidity;BME280_pressure;Samples;Min_cycle;Max_cycle;Signal;HPM_P1;HPM_P2
2023/11/19 00:00:00;;;;;;;;;2.00;2.00;;;;;17.82;100.00;100895.69;2102119;28;46693;-52
2023/11/19 00:01:01;;;;;;;;;0.33;0.33;;;;;17.81;100.00;100897.50;2104455;28;46323;-53
2023/11/19 00:02:01;;;;;;;;;1.00;1.00;;;;;17.82;100.00;100891.19;2104948;28;46340;-52
2023/11/19 00:03:02;;;;;;;;;1.00;1.00;;;;;17.83;100.00;100900.09;2103864;28;46178;-52
2023/11/19 00:04:04;;;;;;;;;0.00;0.00;;;;;17.82;100.00;100895.69;2104904;28;46182;-52
2023/11/19 00:05:08;;;;;;;;;70.00;60.25;;;;;17.82;100.00;100898.38;2103993;28;46659;-55
2023/11/19 00:06:11;;;;;;;;;39.00;31.60;;;;;17.80;100.00;100906.50;2104643;28;46428;-51
2023/11/19 00:07:13;;;;;;;;;11.25;10.25;;;;;17.81;100.00;100897.50;2095735;28;46851;-51
2023/11/19 00:08:13;;;;;;;;;9.50;7.75;;;;;17.82;100.00;100895.69;2096052;28;46685;-52
2023/11/19 00:09:16;;;;;;;;;4.00;4.00;;;;;17.82;100.00;100898.38;2104598;28;47214;-53
2023/11/19 00:10:20;;;;;;;;;1.00;1.00;;;;;17.82;100.00;100893.00;2105103;28;46450;-53
2023/11/19 00:11:21;;;;;;;;;1.25;1.00;;;;;17.81;100.00;100896.63;2104320;28;46585;-54
2023/11/19 00:12:22;;;;;;;;;1.00;1.00;;;;;17.81;100.00;100888.56;2104904;28;46487;-54
2023/11/19 00:13:23;;;;;;;;;1.25;0.25;;;;;17.82;100.00;100888.50;2104115;28;46358;-53
2023/11/19 00:14:25;;;;;;;;;1.00;1.00;;;;;17.81;100.00;100884.06;2104468;28;45708;-51
2023/11/19 00:15:25;;;;;;;;;0.50;0.00;;;;;17.84;100.00;100891.09;2104607;27;47142;-51
2023/11/19 00:16:26;;;;;;;;;1.00;1.00;;;;;17.84;100.00;100888.41;2100061;27;46321;-51
2023/11/19 00:17:27;;;;;;;;;1.00;1.00;;;;;17.85;100.00;100885.66;2096592;28;46574;-52
2023/11/19 00:18:27;;;;;;;;;0.67;0.67;;;;;17.86;100.00;100898.13;2088710;28;46322;-54
2023/11/19 00:19:27;;;;;;;;;1.00;1.00;;;;;17.85;100.00;100895.53;2096640;28;46344;-54
2023/11/19 00:20:28;;;;;;;;;3.67;3.67;;;;;17.85;100.00;100893.72;2105971;28;46650;-54
2023/11/19 00:21:29;;;;;;;;;0.25;0.25;;;;;17.85;100.00;100891.03;2105405;28;46572;-52
2023/11/19 00:22:29;;;;;;;;;3.00;1.67;;;;;17.87;100.00;100897.19;2105370;28;46509;-52
2023/11/19 00:23:29;;;;;;;;;5.67;5.67;;;;;17.85;100.00;100888.34;2105885;28;46737;-50
2023/11/19 00:24:30;;;;;;;;;5.67;5.00;;;;;17.86;100.00;100886.53;2105753;28;46631;-53
2023/11/19 00:25:30;;;;;;;;;8.33;7.67;;;;;17.86;100.00;100889.22;2105520;28;46760;-53
2023/11/19 00:26:31;;;;;;;;;4.00;4.00;;;;;17.86;100.00;100889.22;2098651;28;46191;-52
2023/11/19 00:27:31;;;;;;;;;1.67;1.00;;;;;17.87;100.00;100897.19;2105090;28;46324;-49
2023/11/19 00:28:34;;;;;;;;;1.00;1.00;;;;;17.86;100.00;100887.41;2106133;28;46860;-53
2023/11/19 00:29:34;;;;;;;;;1.00;1.00;;;;;17.87;100.00;100880.22;2105628;28;46586;-52
2023/11/19 00:30:35;;;;;;;;;0.33;0.33;;;;;17.89;100.00;100881.88;2096566;28;46304;-49
2023/11/19 00:31:35;;;;;;;;;1.00;1.00;;;;;17.91;100.00;100882.69;2096687;28;46533;-50
2023/11/19 00:32:38;;;;;;;;;1.00;1.00;;;;;17.92;100.00;100881.75;2105962;28;47024;-52
2023/11/19 00:33:39;;;;;;;;;0.25;0.25;;;;;17.91;100.00;100871.94;2105908;28;46330;-49
2023/11/19 00:34:39;;;;;;;;;2.00;0.25;;;;;17.93;100.00;100878.09;2100035;27;46417;-52
2023/11/19 00:35:39;;;;;;;;;1.00;0.33;;;;;17.93;100.00;100871.88;2105992;28;46752;-51
2023/11/19 00:36:40;;;;;;;;;0.33;0.33;;;;;17.93;100.00;100867.38;2096723;28;46728;-54
2023/11/19 00:37:42;;;;;;;;;0.00;0.00;;;;;17.94;100.00;100865.56;2097249;28;46185;-53
2023/11/19 00:38:42;;;;;;;;;0.00;0.00;;;;;17.94;100.00;100873.59;2105351;28;46420;-49
2023/11/19 00:39:43;;;;;;;;;1.00;0.33;;;;;17.96;100.00;100874.38;2096582;28;46457;-53
2023/11/19 00:40:44;;;;;;;;;0.00;0.00;;;;;17.95;100.00;100872.66;2095619;28;46492;-50
2023/11/19 00:41:46;;;;;;;;;0.67;0.67;;;;;17.93;100.00;100872.72;2102347;28;46867;-51
2023/11/19 00:42:46;;;;;;;;;1.00;0.00;;;;;17.93;100.00;100869.19;2105813;28;46036;-52
2023/11/19 00:43:46;;;;;;;;;0.33;0.33;;;;;17.93;100.00;100870.06;2105772;28;46730;-56
2023/11/19 00:44:47;;;;;;;;;2.00;2.00;;;;;17.92;100.00;100868.31;2105197;28;46682;-51
2023/11/19 00:45:50;;;;;;;;;5.33;4.00;;;;;17.94;100.00;100865.56;2105615;28;46418;-52
2023/11/19 00:46:50;;;;;;;;;4.00;4.00;;;;;17.94;100.00;100873.59;2105684;28;46521;-50
2023/11/19 00:47:50;;;;;;;;;2.00;2.00;;;;;17.94;100.00;100871.78;2106037;28;46318;-52
2023/11/19 00:48:51;;;;;;;;;5.67;5.67;;;;;17.95;100.00;100875.34;2105882;28;45621;-51
2023/11/19 00:49:52;;;;;;;;;2.67;1.00;;;;;17.95;100.00;100875.34;2105979;28;46792;-55
2023/11/19 00:50:52;;;;;;;;;5.00;5.00;;;;;17.96;100.00;100870.84;2105993;28;45111;-52
2023/11/19 00:51:52;;;;;;;;;3.33;2.00;;;;;17.94;100.00;100876.28;2102752;27;46556;-56
2023/11/19 00:52:53;;;;;;;;;3.00;2.00;;;;;17.92;100.00;100873.69;2105023;28;46586;-56
2023/11/19 00:53:53;;;;;;;;;1.00;1.00;;;;;17.96;100.00;100873.53;2105757;28;47028;-54
2023/11/19 00:54:53;;;;;;;;;2.00;2.00;;;;;17.96;100.00;100868.16;2097214;28;46164;-53
2023/11/19 00:55:54;;;;;;;;;0.00;0.00;;;;;17.95;100.00;100864.59;2097058;28;46314;-53
2023/11/19 00:56:55;;;;;;;;;0.00;0.00;;;;;17.96;100.00;100869.03;2105653;28;46023;-51
2023/11/19 00:57:56;;;;;;;;;0.00;0.00;;;;;17.98;100.00;100866.25;2104697;28;46507;-50
2023/11/19 00:58:56;;;;;;;;;0.75;0.75;;;;;17.98;100.00;100869.81;2097343;28;45685;-55
2023/11/19 00:59:57;;;;;;;;;1.00;1.00;;;;;17.98;100.00;100867.13;2096703;28;46259;-54
2023/11/19 01:00:57;;;;;;;;;0.00;0.00;;;;;17.98;100.00;100872.50;2105770;28;46686;-51
2023/11/19 01:02:02;;;;;;;;;5.33;4.67;;;;;17.98;100.00;100877.88;2105589;28;46730;-52
2023/11/19 01:03:03;;;;;;;;;1.75;1.75;;;;;17.99;100.00;100881.41;2096900;28;46530;-54
2023/11/19 01:04:03;;;;;;;;;1.00;1.00;;;;;17.98;100.00;100875.19;2097212;28;46475;-55
2023/11/19 01:05:04;;;;;;;;;0.00;0.00;;;;;17.96;100.00;100876.22;2100794;28;46827;-56
2023/11/19 01:06:04;;;;;;;;;1.33;1.33;;;;;17.95;100.00;100880.72;2086775;28;46494;-50
2023/11/19 01:07:12;;;;;;;;;0.00;0.00;;;;;17.96;100.00;100879.75;2087574;28;46550;-48
2023/11/19 01:08:12;;;;;;;;;0.75;0.75;;;;;17.96;100.00;100877.06;2101667;28;46410;-53
2023/11/19 01:09:13;;;;;;;;;0.00;0.00;;;;;17.97;100.00;100869.88;2102945;27;46308;-53
2023/11/19 01:10:13;;;;;;;;;0.00;0.00;;;;;17.94;100.00;100869.09;2104489;28;46423;-52
2023/11/19 01:11:23;;;;;;;;;0.00;0.00;;;;;17.96;100.00;100873.53;2095452;28;46277;-51
2023/11/19 01:12:23;;;;;;;;;0.00;0.00;;;;;17.96;100.00;100873.53;2097741;28;46469;-50
2023/11/19 01:13:24;;;;;;;;;0.00;0.00;;;;;17.95;100.00;100869.97;2096405;28;46187;-53
2023/11/19 01:14:25;;;;;;;;;1.00;0.00;;;;;17.95;100.00;100872.66;2096361;28;46679;-54
2023/11/19 01:15:26;;;;;;;;;1.00;0.00;;;;;17.93;100.00;100875.41;2105627;28;46705;-50
2023/11/19 01:16:27;;;;;;;;;1.00;1.00;;;;;17.94;100.00;100879.84;2105055;28;46391;-51
2023/11/19 01:17:27;;;;;;;;;0.50;0.00;;;;;17.95;100.00;100878.03;2096234;28;46937;-50
2023/11/19 01:18:27;;;;;;;;;0.00;0.00;;;;;17.94;100.00;100873.59;2092125;28;46339;-54
2023/11/19 01:19:28;;;;;;;;;0.00;0.00;;;;;17.95;100.00;100883.41;2096050;28;46202;-50
2023/11/19 01:20:28;;;;;;;;;0.00;0.00;;;;;17.96;100.00;100881.59;2092008;28;46397;-50
2023/11/19 01:21:29;;;;;;;;;0.00;0.00;;;;;17.92;100.00;100873.69;2095766;28;46597;-51
2023/11/19 01:22:29;;;;;;;;;0.00;0.00;;;;;17.95;100.00;100875.34;2105359;28;46538;-50
2023/11/19 01:23:29;;;;;;;;;0.00;0.00;;;;;17.98;100.00;100868.94;2101044;27;46124;-48
2023/11/19 01:24:31;;;;;;;;;0.00;0.00;;;;;17.96;100.00;100866.34;2102533;28;46266;-53
2023/11/19 01:25:31;;;;;;;;;0.00;0.00;;;;;17.97;100.00;100870.75;2105467;28;46348;-51
2023/11/19 01:26:31;;;;;;;;;0.00;0.00;;;;;17.98;100.00;100877.00;2096179;28;46929;-52
2023/11/19 01:27:34;;;;;;;;;0.00;0.00;;;;;17.98;100.00;100877.00;2096045;28;46350;-53
2023/11/19 01:28:34;;;;;;;;;0.00;0.00;;;;;17.99;100.00;100879.59;2101477;28;46864;-52
2023/11/19 01:29:34;;;;;;;;;0.00;0.00;;;;;17.99;100.00;100878.72;2093340;28;46396;-54
2023/11/19 01:30:35;;;;;;;;;0.00;0.00;;;;;17.99;100.00;100871.53;2096411;28;46754;-53
2023/11/19 01:31:35;;;;;;;;;0.00;0.00;;;;;17.99;100.00;100871.53;2083244;28;46102;-52
2023/11/19 01:32:36;;;;;;;;;0.00;0.00;;;;;17.98;100.00;100871.63;2080940;28;47066;-50
2023/11/19 01:33:36;;;;;;;;;0.00;0.00;;;;;17.97;100.00;100870.75;2104168;28;46626;-50
2023/11/19 01:34:37;;;;;;;;;0.00;0.00;;;;;17.98;100.00;100868.94;2095803;28;46627;-47
2023/11/19 01:35:37;;;;;;;;;0.00;0.00;;;;;17.99;100.00;100868.84;2096991;28;46644;-52
2023/11/19 01:36:38;;;;;;;;;0.67;0.00;;;;;17.99;100.00;100868.84;2105058;28;46615;-52
2023/11/19 01:37:38;;;;;;;;;0.33;0.00;;;;;18.01;100.00;100876.84;2105358;28;46345;-55
2023/11/19 01:38:38;;;;;;;;;0.00;0.00;;;;;17.99;100.00;100876.91;2105685;28;45970;-52
2023/11/19 01:39:45;;;;;;;;;0.33;0.33;;;;;18.01;100.00;100875.03;2094401;28;46832;-52
2023/11/19 01:40:45;;;;;;;;;0.00;0.00;;;;;18.00;100.00;100881.34;2097322;28;47116;-50
2023/11/19 01:41:46;;;;;;;;;0.00;0.00;;;;;18.01;100.00;100872.34;2096560;28;47115;-45
2023/11/19 01:42:46;;;;;;;;;0.00;0.00;;;;;18.02;100.00;100887.50;2100048;28;45981;-50
2023/11/19 01:43:47;;;;;;;;;0.00;0.00;;;;;18.02;100.00;100881.25;2105498;28;46325;-52
2023/11/19 01:44:58;;;;;;;;;0.00;0.00;;;;;18.02;100.00;100886.63;2103239;28;46588;-54
2023/11/19 01:45:59;;;;;;;;;0.00;0.00;;;;;18.01;100.00;100883.06;2105783;28;46431;-54
2023/11/19 01:47:00;;;;;;;;;0.00;0.00;;;;;18.02;100.00;100887.50;2104766;28;46355;-51
2023/11/19 01:48:06;;;;;;;;;0.00;0.00;;;;;18.02;100.00;100886.63;2095723;28;47021;-52
2023/11/19 01:49:07;;;;;;;;;0.00;0.00;;;;;18.02;100.00;100890.19;2091695;28;46486;-55
2023/11/19 01:50:09;;;;;;;;;0.00;0.00;;;;;18.00;100.00;100880.47;2105415;28;46672;-52
2023/11/19 01:51:09;;;;;;;;;0.50;0.00;;;;;18.02;100.00;100882.13;2105337;28;46786;-53
2023/11/19 01:52:10;;;;;;;;;0.00;0.00;;;;;18.00;100.00;100892.06;2105283;28;46621;-52
2023/11/19 01:53:11;;;;;;;;;0.00;0.00;;;;;18.03;100.00;100885.69;2105432;28;46583;-53
2023/11/19 01:54:12;;;;;;;;;0.00;0.00;;;;;18.04;100.00;100885.63;2104598;28;46540;-50
2023/11/19 01:55:13;;;;;;;;;0.00;0.00;;;;;18.05;100.00;100891.88;2098964;28;46801;-52
2023/11/19 01:56:15;;;;;;;;;0.00;0.00;;;;;18.06;100.00;100886.41;2103289;27;46416;-50
2023/11/19 01:57:16;;;;;;;;;0.00;0.00;;;;;18.08;100.00;100886.34;2104806;28;46570;-53
2023/11/19 01:58:17;;;;;;;;;0.00;0.00;;;;;18.08;100.00;100886.34;2105144;28;46862;-55
2023/11/19 01:59:17;;;;;;;;;0.00;0.00;;;;;18.09;100.00;100896.13;2104316;28;46413;-53
2023/11/19 02:00:19;;;;;;;;;0.00;0.00;;;;;18.08;100.00;100897.94;2105058;28;46839;-52
2023/11/19 02:01:20;;;;;;;;;1.50;0.00;;;;;18.08;100.00;100889.91;2105173;28;46924;-48
2023/11/19 02:02:20;;;;;;;;;0.00;0.00;;;;;18.07;100.00;100887.28;2104817;28;46288;-51
2023/11/19 02:03:21;;;;;;;;;0.00;0.00;;;;;18.06;100.00;100885.56;2100031;28;46680;-52
2023/11/19 02:04:22;;;;;;;;;0.00;0.00;;;;;18.07;100.00;100881.91;2105785;28;46545;-53
2023/11/19 02:05:23;;;;;;;;;0.00;0.00;;;;;18.08;100.00;100883.66;2104945;28;46744;-50
2023/11/19 02:06:24;;;;;;;;;0.00;0.00;;;;;18.09;100.00;100874.66;2105102;28;46399;-52
2023/11/19 02:07:25;;;;;;;;;0.00;0.00;;;;;18.08;100.00;100881.84;2104989;28;46381;-51
2023/11/19 02:08:26;;;;;;;;;0.00;0.00;;;;;18.09;100.00;100866.59;2105220;28;47077;-48
2023/11/19 02:09:27;;;;;;;;;1.00;0.00;;;;;18.09;100.00;100874.66;2099099;27;47374;-53
2023/11/19 02:10:27;;;;;;;;;0.00;0.00;;;;;18.08;100.00;100873.78;2102688;28;46862;-53
2023/11/19 02:11:29;;;;;;;;;0.00;0.00;;;;;18.08;100.00;100875.59;2105439;28;46412;-51
2023/11/19 02:12:31;;;;;;;;;0.00;0.00;;;;;18.06;100.00;100864.94;2105021;28;46785;-52
2023/11/19 02:13:32;;;;;;;;;0.00;0.00;;;;;18.07;100.00;100865.81;2103495;27;46882;-54
2023/11/19 02:14:33;;;;;;;;;0.33;0.00;;;;;18.06;100.00;100872.13;2104413;28;46330;-53
2023/11/19 02:15:33;;;;;;;;;0.00;0.00;;;;;18.05;100.00;100865.03;2095920;28;46176;-48
2023/11/19 02:16:34;;;;;;;;;0.67;0.67;;;;;18.05;100.00;100860.50;2096554;28;46802;-53
2023/11/19 02:17:34;;;;;;;;;0.00;0.00;;;;;18.05;100.00;100863.19;2104427;28;46750;-54
2023/11/19 02:18:34;;;;;;;;;1.00;0.00;;;;;18.06;100.00;100875.69;2105327;28;46588;-53
2023/11/19 02:19:35;;;;;;;;;1.00;1.00;;;;;18.07;100.00;100873.84;2105092;28;46489;-54
2023/11/19 02:20:35;;;;;;;;;0.00;0.00;;;;;18.07;100.00;100876.53;2103621;28;46326;-52
2023/11/19 02:21:37;;;;;;;;;1.75;0.25;;;;;18.07;100.00;100871.19;2104741;28;47225;-53
2023/11/19 02:22:38;;;;;;;;;2.00;0.00;;;;;18.06;100.00;100873.00;2103755;28;46669;-50
2023/11/19 02:23:38;;;;;;;;;0.00;0.00;;;;;18.06;100.00;100866.75;2104893;28;46512;-54
2023/11/19 02:24:39;;;;;;;;;0.00;0.00;;;;;18.05;100.00;100867.69;2102919;28;46272;-53
2023/11/19 02:25:40;;;;;;;;;0.00;0.00;;;;;18.04;100.00;100864.16;2098723;28;46338;-50
2023/11/19 02:27:00;;;;;;;;;0.00;0.00;;;;;18.05;100.00;100868.56;2103874;28;46769;-51
2023/11/19 02:28:02;;;;;;;;;0.25;0.25;;;;;18.04;100.00;100863.25;2100778;28;46601;-50
2023/11/19 02:29:02;;;;;;;;;0.75;0.00;;;;;18.04;100.00;100869.53;2102899;27;46720;-52
2023/11/19 02:30:06;;;;;;;;;0.00;0.00;;;;;18.02;100.00;100857.97;2103047;27;46469;-53
2023/11/19 02:31:09;;;;;;;;;0.00;0.00;;;;;18.02;100.00;100855.28;2098588;27;46321;-50
2023/11/19 02:32:09;;;;;;;;;1.75;1.75;;;;;18.00;100.00;100861.66;2105277;28;46337;-51
2023/11/19 02:33:09;;;;;;;;;1.67;0.00;;;;;17.97;100.00;100864.53;2095571;28;46896;-52
2023/11/19 02:34:12;;;;;;;;;0.00;0.00;;;;;17.97;100.00;100864.53;2092596;28;46390;-53
2023/11/19 02:35:12;;;;;;;;;1.00;1.00;;;;;17.94;100.00;100860.19;2095898;28;46759;-53
2023/11/19 02:36:13;;;;;;;;;1.00;0.00;;;;;17.94;100.00;100868.22;2098868;28;46806;-50
2023/11/19 02:37:14;;;;;;;;;0.00;0.00;;;;;17.93;100.00;100862.00;2095892;28;46442;-51
2023/11/19 02:38:15;;;;;;;;;0.00;0.00;;;;;17.94;100.00;100857.50;2096190;28;47072;-51
2023/11/19 02:39:21;;;;;;;;;0.00;0.00;;;;;17.99;100.00;100866.19;2103894;28;46236;-50
2023/11/19 02:40:24;;;;;;;;;0.00;0.00;;;;;18.01;100.00;100861.59;2088194;28;46799;-50
2023/11/19 02:41:24;;;;;;;;;0.75;0.75;;;;;18.02;100.00;100867.84;2089129;28;46766;-48
2023/11/19 02:42:24;;;;;;;;;0.00;0.00;;;;;18.04;100.00;100869.53;2103984;28;46847;-50
2023/11/19 02:43:24;;;;;;;;;0.00;0.00;;;;;18.05;100.00;100865.88;2104884;28;46170;-52
2023/11/19 02:44:28;;;;;;;;;3.00;1.00;;;;;18.06;100.00;100864.06;2104147;28;45895;-55
2023/11/19 02:45:30;;;;;;;;;0.00;0.00;;;;;18.04;100.00;100863.25;2104654;28;46553;-47
2023/11/19 02:46:31;;;;;;;;;0.75;0.50;;;;;18.01;100.00;100869.66;2100898;27;46300;-52
2023/11/19 02:47:33;;;;;;;;;0.75;0.00;;;;;18.02;100.00;100862.47;2104937;28;46355;-51
2023/11/19 02:48:37;;;;;;;;;2.00;0.00;;;;;17.97;100.00;100853.78;2104830;28;46282;-52
2023/11/19 02:49:37;;;;;;;;;0.00;0.00;;;;;17.96;100.00;100857.41;2092026;28;46286;-50
2023/11/19 02:50:37;;;;;;;;;0.00;0.00;;;;;17.97;100.00;100857.34;2095071;28;46314;-51
2023/11/19 02:51:38;;;;;;;;;1.00;0.67;;;;;17.99;100.00;100852.75;2104070;28;46298;-52
2023/11/19 02:52:39;;;;;;;;;0.00;0.00;;;;;17.99;100.00;100857.25;2103765;28;46317;-50
2023/11/19 02:53:39;;;;;;;;;0.00;0.00;;;;;17.99;100.00;100860.81;2104805;28;46902;-52
2023/11/19 02:54:41;;;;;;;;;1.00;0.00;;;;;17.95;100.00;100856.53;2105130;28;46656;-53
2023/11/19 02:55:48;;;;;;;;;0.00;0.00;;;;;17.98;100.00;100861.75;2096085;28;46413;-50
2023/11/19 02:56:55;;;;;;;;;0.00;0.00;;;;;17.97;100.00;100860.03;2097097;28;46645;-52
2023/11/19 02:57:56;;;;;;;;;0.00;0.00;;;;;17.98;100.00;100863.56;2104614;28;46981;-51
2023/11/19 02:58:56;;;;;;;;;0.00;0.00;;;;;17.96;100.00;100863.66;2104949;28;46995;-50
2023/11/19 02:59:56;;;;;;;;;0.00;0.00;;;;;17.97;100.00;100857.34;2104989;28;46179;-51
2023/11/19 03:00:57;;;;;;;;;2.00;0.00;;;;;17.92;100.00;100862.06;2104434;28;46065;-51
2023/11/19 03:01:59;;;;;;;;;0.00;0.00;;;;;17.94;100.00;100853.00;2097140;28;46373;-52
2023/11/19 03:03:05;;;;;;;;;0.00;0.00;;;;;17.91;100.00;100854.94;2098596;28;46483;-53
2023/11/19 03:04:05;;;;;;;;;1.75;0.00;;;;;17.96;100.00;100857.41;2100972;27;46972;-50
2023/11/19 03:05:07;;;;;;;;;0.00;0.00;;;;;17.91;100.00;100850.47;2101031;28;46276;-53
2023/11/19 03:06:09;;;;;;;;;2.75;0.00;;;;;17.96;100.00;100855.59;2099379;28;46597;-49
2023/11/19 03:07:09;;;;;;;;;0.25;0.25;;;;;17.97;100.00;100859.16;2104883;28;45218;-49
2023/11/19 03:08:10;;;;;;;;;0.00;0.00;;;;;17.97;100.00;100856.47;2102733;28;46545;-54
2023/11/19 03:09:10;;;;;;;;;0.00;0.00;;;;;17.92;100.00;100859.38;2102578;28;46708;-54
2023/11/19 03:10:14;;;;;;;;;0.33;0.33;;;;;17.97;100.00;100864.53;2105425;28;45273;-50
2023/11/19 03:11:15;;;;;;;;;0.00;0.00;;;;;17.96;100.00;100865.47;2104085;28;46670;-53
2023/11/19 03:12:16;;;;;;;;;2.00;1.00;;;;;17.97;100.00;100864.53;2100418;28;47103;-52
2023/11/19 03:13:19;;;;;;;;;0.00;0.00;;;;;17.97;100.00;100860.03;2086742;28;46778;-50
2023/11/19 03:14:19;;;;;;;;;0.00;0.00;;;;;17.93;100.00;100870.06;2087329;28;46579;-48
2023/11/19 03:15:20;;;;;;;;;0.00;0.00;;;;;17.89;100.00;100862.19;2104729;28;46830;-54
2023/11/19 03:16:21;;;;;;;;;0.00;0.00;;;;;17.90;100.00;100858.56;2086770;28;46388;-49
2023/11/19 03:17:21;;;;;;;;;0.00;0.00;;;;;17.88;100.00;100858.66;2085955;28;46228;-50
2023/11/19 03:18:22;;;;;;;;;0.00;0.00;;;;;17.87;100.00;100864.97;2105589;28;46383;-49
2023/11/19 03:19:22;;;;;;;;;0.00;0.00;;;;;17.89;100.00;100867.56;2100780;28;46722;-51
2023/11/19 03:20:23;;;;;;;;;1.33;0.00;;;;;17.88;100.00;100869.38;2102870;28;46512;-49
2023/11/19 03:21:31;;;;;;;;;0.25;0.25;;;;;17.88;100.00;100863.16;2104577;28;46627;-46
2023/11/19 03:22:33;;;;;;;;;0.00;0.00;;;;;17.89;100.00;100863.06;2104556;28;46345;-50
2023/11/19 03:23:35;;;;;;;;;0.00;0.00;;;;;17.85;100.00;100864.19;2092480;28;46704;-53
2023/11/19 03:24:35;;;;;;;;;0.00;0.00;;;;;17.85;100.00;100861.50;2096518;28;46407;-53
2023/11/19 03:25:37;;;;;;;;;1.67;1.67;;;;;17.83;100.00;100863.38;2097090;28;46618;-52
2023/11/19 03:26:38;;;;;;;;;0.00;0.00;;;;;17.88;100.00;100863.16;2095877;28;46302;-49
2023/11/19 03:27:39;;;;;;;;;0.00;0.00;;;;;17.87;100.00;100862.28;2104565;28;46374;-51
2023/11/19 03:28:39;;;;;;;;;0.00;0.00;;;;;17.86;100.00;100855.19;2103071;28;46893;-52
2023/11/19 03:29:39;;;;;;;;;0.00;0.00;;;;;17.86;100.00;100862.38;2096336;28;46293;-55
2023/11/19 03:30:40;;;;;;;;;0.00;0.00;;;;;17.85;100.00;100858.81;2104569;28;46935;-51
2023/11/19 03:31:44;;;;;;;;;0.00;0.00;;;;;17.86;100.00;100867.72;2104678;28;46669;-49
2023/11/19 03:32:44;;;;;;;;;0.00;0.00;;;;;17.85;100.00;100864.19;2104496;28;46709;-53
2023/11/19 03:33:45;;;;;;;;;1.00;0.00;;;;;17.84;100.00;100865.13;2102385;28;46448;-52
2023/11/19 03:34:45;;;;;;;;;1.33;1.33;;;;;17.81;100.00;100859.91;2097881;28;46209;-53
2023/11/19 03:35:45;;;;;;;;;0.00;0.00;;;;;17.81;100.00;100854.53;2095542;28;46481;-51
2023/11/19 03:36:46;;;;;;;;;1.00;0.00;;;;;17.84;100.00;100861.56;2103045;27;46812;-51
2023/11/19 03:37:46;;;;;;;;;0.33;0.33;;;;;17.81;100.00;100861.72;2103460;28;46544;-51
2023/11/19 03:38:46;;;;;;;;;0.00;0.00;;;;;17.83;100.00;100858.03;2090861;28;46346;-51
2023/11/19 03:39:47;;;;;;;;;1.00;1.00;;;;;17.83;100.00;100862.53;2092328;28;46479;-53
2023/11/19 03:40:47;;;;;;;;;0.00;0.00;;;;;17.80;100.00;100860.88;2101380;28;46633;-53
2023/11/19 03:41:47;;;;;;;;;1.00;0.33;;;;;17.81;100.00;100861.72;2104140;28;46665;-52
2023/11/19 03:42:48;;;;;;;;;1.33;0.33;;;;;17.83;100.00;100868.75;2095716;28;47391;-52
2023/11/19 03:43:48;;;;;;;;;1.67;0.00;;;;;17.83;100.00;100859.84;2068293;28;46227;-53
2023/11/19 03:44:49;;;;;;;;;0.00;0.00;;;;;17.82;100.00;100848.22;2077686;28;46717;-51
2023/11/19 03:45:50;;;;;;;;;0.75;0.75;;;;;17.82;100.00;100856.28;2098300;28;46315;-53
2023/11/19 03:46:50;;;;;;;;;0.00;0.00;;;;;17.81;100.00;100838.44;2104936;28;46899;-54
2023/11/19 03:47:51;;;;;;;;;0.00;0.00;;;;;17.82;100.00;100847.38;2104322;28;46635;-49
2023/11/19 03:48:51;;;;;;;;;1.00;0.00;;;;;17.83;100.00;100841.03;2104052;28;46148;-47
2023/11/19 03:49:52;;;;;;;;;2.00;0.33;;;;;17.83;100.00;100841.03;2104558;27;46266;-55
2023/11/19 03:50:52;;;;;;;;;1.00;0.00;;;;;17.83;100.00;100849.97;2095067;28;46246;-51
2023/11/19 03:51:52;;;;;;;;;0.00;0.00;;;;;17.82;100.00;100850.91;2096402;28;46792;-53
2023/11/19 03:52:53;;;;;;;;;0.00;0.00;;;;;17.82;100.00;100847.38;2101616;27;46603;-49
2023/11/19 03:53:53;;;;;;;;;1.00;0.00;;;;;17.80;100.00;100852.81;2104937;28;48384;-49
2023/11/19 03:54:55;;;;;;;;;0.00;0.00;;;;;17.82;100.00;100850.03;2106207;28;46430;-52
2023/11/19 03:55:55;;;;;;;;;0.00;0.00;;;;;17.82;100.00;100844.69;2106503;28;46482;-52
2023/11/19 03:56:56;;;;;;;;;0.00;0.00;;;;;17.84;100.00;100856.22;2106004;28;46844;-49
2023/11/19 03:57:56;;;;;;;;;0.00;0.00;;;;;17.84;100.00;100856.22;2098404;28;46164;-53
2023/11/19 03:58:56;;;;;;;;;2.00;1.00;;;;;17.83;100.00;100852.66;2101967;28;46272;-53
2023/11/19 03:59:58;;;;;;;;;0.33;0.00;;;;;17.83;100.00;100852.66;2106250;28;46813;-53
2023/11/19 04:00:58;;;;;;;;;0.25;0.00;;;;;17.82;100.00;100848.22;2106065;28;46581;-53
2023/11/19 04:02:00;;;;;;;;;0.67;0.00;;;;;17.83;100.00;100859.84;2104995;28;47043;-53
2023/11/19 04:03:00;;;;;;;;;0.75;0.75;;;;;17.84;100.00;100856.22;2104485;28;46466;-51
2023/11/19 04:04:01;;;;;;;;;0.33;0.33;;;;;17.83;100.00;100855.34;2105633;28;46721;-55
2023/11/19 04:05:03;;;;;;;;;0.00;0.00;;;;;17.83;100.00;100860.69;2106436;28;46245;-47
2023/11/19 04:06:04;;;;;;;;;0.00;0.00;;;;;17.83;100.00;100851.78;2105656;28;46767;-51
2023/11/19 04:07:05;;;;;;;;;0.00;0.00;;;;;17.82;100.00;100858.97;2105850;28;46600;-51
2023/11/19 04:08:05;;;;;;;;;0.67;0.00;;;;;17.83;100.00;100866.06;2104145;28;46356;-50
2023/11/19 04:09:05;;;;;;;;;0.00;0.00;;;;;17.83;100.00;100857.16;2106148;28;46949;-51
2023/11/19 04:10:06;;;;;;;;;0.00;0.00;;;;;17.81;100.00;100859.91;2105926;28;46405;-50
2023/11/19 04:11:08;;;;;;;;;0.00;0.00;;;;;17.80;100.00;100866.22;2105933;28;46343;-53
2023/11/19 04:12:08;;;;;;;;;0.25;0.00;;;;;17.80;100.00;100862.69;2106029;28;46242;-50
2023/11/19 04:13:09;;;;;;;;;3.00;2.00;;;;;17.80;100.00;100860.88;2105973;28;46097;-48
2023/11/19 04:14:10;;;;;;;;;0.00;0.00;;;;;17.81;100.00;100864.41;2105580;28;46821;-50
2023/11/19 04:15:11;;;;;;;;;0.00;0.00;;;;;17.84;100.00;100867.81;2106168;28;46091;-51
2023/11/19 04:16:11;;;;;;;;;0.75;0.00;;;;;17.85;100.00;100866.00;2105046;28;46934;-49
2023/11/19 04:17:12;;;;;;;;;0.00;0.00;;;;;17.84;100.00;100867.81;2105224;28;45943;-50
2023/11/19 04:18:12;;;;;;;;;0.00;0.00;;;;;17.85;100.00;100857.94;2105755;28;45972;-52
2023/11/19 04:19:12;;;;;;;;;0.67;0.00;;;;;17.84;100.00;100858.88;2105646;28;46647;-50
2023/11/19 04:20:13;;;;;;;;;0.33;0.33;;;;;17.86;100.00;100865.03;2096948;28;46272;-51
2023/11/19 04:21:14;;;;;;;;;0.00;0.00;;;;;17.86;100.00;100865.03;2089093;28;46822;-51
2023/11/19 04:22:14;;;;;;;;;0.00;0.00;;;;;17.85;100.00;100860.63;2096832;28;46597;-49
2023/11/19 04:23:14;;;;;;;;;1.33;0.00;;;;;17.83;100.00;100866.06;2105799;28;47529;-50
2023/11/19 04:24:15;;;;;;;;;0.00;0.00;;;;;17.83;100.00;100867.91;2106217;28;46702;-51
2023/11/19 04:25:16;;;;;;;;;0.00;0.00;;;;;17.80;100.00;100866.22;2102929;27;46286;-47
2023/11/19 04:26:16;;;;;;;;;0.00;0.00;;;;;17.80;100.00;100871.59;2103843;28;46725;-51
2023/11/19 04:27:17;;;;;;;;;0.00;0.00;;;;;17.80;100.00;100870.72;2100500;28;46177;-51
2023/11/19 04:28:17;;;;;;;;;0.00;0.00;;;;;17.79;100.00;100874.38;2106065;28;46435;-51
2023/11/19 04:29:18;;;;;;;;;0.00;0.00;;;;;17.78;100.00;100869.91;2106037;28;46790;-53
2023/11/19 04:30:18;;;;;;;;;1.00;0.00;;;;;17.79;100.00;100867.19;2104720;28;46624;-52
2023/11/19 04:31:18;;;;;;;;;0.00;0.00;;;;;17.79;100.00;100871.69;2097001;28;46470;-51
2023/11/19 04:32:19;;;;;;;;;0.00;0.00;;;;;17.82;100.00;100871.53;2097269;28;46290;-56
2023/11/19 04:33:19;;;;;;;;;0.00;0.00;;;;;17.80;100.00;100876.09;2102983;28;46292;-51
2023/11/19 04:34:19;;;;;;;;;0.00;0.00;;;;;17.79;100.00;100869.00;2108688;27;46610;-53
2023/11/19 04:35:21;;;;;;;;;0.00;0.00;;;;;17.74;100.00;100876.38;2097542;28;46839;-53
2023/11/19 04:36:24;;;;;;;;;0.50;0.25;;;;;17.77;100.00;100871.72;2100996;28;46780;-48
2023/11/19 04:37:24;;;;;;;;;0.00;0.00;;;;;17.77;100.00;100876.22;2106515;28;46904;-51
2023/11/19 04:38:26;;;;;;;;;0.00;0.00;;;;;17.68;100.00;100874.84;2105796;28;46380;-51
2023/11/19 04:39:26;;;;;;;;;0.00;0.00;;;;;17.74;100.00;100881.75;2105963;28;46284;-50
2023/11/19 04:40:27;;;;;;;;;0.00;0.00;;;;;17.74;100.00;100876.38;2106180;28;46724;-49